sensor_id;sensor_type;location;lat;lon;timestamp;temperature;humidity
26575;DHT22;67165;50.256;10.978;2023-12-22T00:01:09;3.90;98.00
26575;DHT22;67165;50.256;10.978;2023-12-22T00:03:34;3.80;98.00
26575;DHT22;67165;50.256;10.978;2023-12-22T00:06:00;3.80;98.00
26575;DHT22;67165;50.256;10.978;2023-12-22T00:08:26;3.80;98.00
26575;DHT22;67165;50.256;10.978;2023-12-22T00:10:51;3.70;98.00
26575;DHT22;67165;50.256;10.978;2023-12-22T00:13:17;3.70;98.00
26575;DHT22;67165;50.256;10.978;2023-12-22T00:15:43;3.70;98.00
26575;DHT22;67165;50.256;10.978;2023-12-22T00:18:08;3.70;98.00
26575;DHT22;67165;50.256;10.978;2023-12-22T00:20:34;3.60;98.00
26575;DHT22;67165;50.256;10.978;2023-12-22T00:23:00;3.60;98.00
26575;DHT22;67165;50.256;10.978;2023-12-22T00:25:26;3.60;98.00
26575;DHT22;67165;50.256;10.978;2023-12-22T00:27:51;3.60;98.00
26575;DHT22;67165;50.256;10.978;2023-12-22T00:30:17;3.60;98.00
26575;DHT22;67165;50.256;10.978;2023-12-22T00:32:43;3.60;98.00
26575;DHT22;67165;50.256;10.978;2023-12-22T00:35:09;3.70;98.00
26575;DHT22;67165;50.256;10.978;2023-12-22T00:37:34;3.70;98.00
26575;DHT22;67165;50.256;10.978;2023-12-22T00:40:00;3.70;98.00
26575;DHT22;67165;50.256;10.978;2023-12-22T00:42:26;3.70;98.00
26575;DHT22;67165;50.256;10.978;2023-12-22T00:44:52;3.70;98.00
26575;DHT22;67165;50.256;10.978;2023-12-22T00:47:17;3.70;98.00
26575;DHT22;67165;50.256;10.978;2023-12-22T00:49:43;3.60;98.00
26575;DHT22;67165;50.256;10.978;2023-12-22T00:52:08;3.60;98.00
26575;DHT22;67165;50.256;10.978;2023-12-22T00:54:34;3.60;98.00
26575;DHT22;67165;50.256;10.978;2023-12-22T00:57:00;3.60;98.00
26575;DHT22;67165;50.256;10.978;2023-12-22T00:59:25;3.60;98.00
26575;DHT22;67165;50.256;10.978;2023-12-22T01:01:51;3.60;98.00
26575;DHT22;67165;50.256;10.978;2023-12-22T01:04:16;3.60;98.00
26575;DHT22;67165;50.256;10.978;2023-12-22T01:06:42;3.60;98.00
26575;DHT22;67165;50.256;10.978;2023-12-22T01:09:08;3.60;98.00
26575;DHT22;67165;50.256;10.978;2023-12-22T01:11:33;3.70;98.00
26575;DHT22;67165;50.256;10.978;2023-12-22T01:13:59;3.70;98.00
26575;DHT22;67165;50.256;10.978;2023-12-22T01:16:25;3.80;98.00
26575;DHT22;67165;50.256;10.978;2023-12-22T01:18:50;3.90;98.00
26575;DHT22;67165;50.256;10.978;2023-12-22T01:21:19;3.90;98.00
26575;DHT22;67165;50.256;10.978;2023-12-22T01:23:44;3.90;98.00
26575;DHT22;67165;50.256;10.978;2023-12-22T01:26:10;4.00;98.00
26575;DHT22;67165;50.256;10.978;2023-12-22T01:28:36;4.00;98.00
26575;DHT22;67165;50.256;10.978;2023-12-22T01:31:02;4.00;98.00
26575;DHT22;67165;50.256;10.978;2023-12-22T01:33:28;4.00;98.00
26575;DHT22;67165;50.256;10.978;2023-12-22T01:35:55;4.00;98.00
26575;DHT22;67165;50.256;10.978;2023-12-22T01:38:20;4.00;98.00
26575;DHT22;67165;50.256;10.978;2023-12-22T01:40:46;3.90;98.00
26575;DHT22;67165;50.256;10.978;2023-12-22T01:43:12;3.90;98.00
26575;DHT22;67165;50.256;10.978;2023-12-22T01:45:38;3.90;98.00
26575;DHT22;67165;50.256;10.978;2023-12-22T01:48:04;4.00;98.00
26575;DHT22;67165;50.256;10.978;2023-12-22T01:50:30;4.00;98.00
26575;DHT22;67165;50.256;10.978;2023-12-22T01:52:56;3.90;98.00
26575;DHT22;67165;50.256;10.978;2023-12-22T01:55:23;4.00;98.00
26575;DHT22;67165;50.256;10.978;2023-12-22T01:57:49;4.00;98.00
26575;DHT22;67165;50.256;10.978;2023-12-22T02:00:15;4.00;98.00
26575;DHT22;67165;50.256;10.978;2023-12-22T02:02:41;4.00;98.00
26575;DHT22;67165;50.256;10.978;2023-12-22T02:05:10;4.00;98.00
26575;DHT22;67165;50.256;10.978;2023-12-22T02:07:41;4.10;98.00
26575;DHT22;67165;50.256;10.978;2023-12-22T02:10:10;4.10;98.00
26575;DHT22;67165;50.256;10.978;2023-12-22T02:12:38;4.00;98.00
26575;DHT22;67165;50.256;10.978;2023-12-22T02:15:05;4.00;98.00
26575;DHT22;67165;50.256;10.978;2023-12-22T02:17:53;4.00;98.00
26575;DHT22;67165;50.256;10.978;2023-12-22T02:20:21;3.90;98.00
26575;DHT22;67165;50.256;10.978;2023-12-22T02:22:54;3.90;98.00
26575;DHT22;67165;50.256;10.978;2023-12-22T02:25:22;3.90;98.00
26575;DHT22;67165;50.256;10.978;2023-12-22T02:28:11;3.90;98.00
26575;DHT22;67165;50.256;10.978;2023-12-22T02:30:43;3.80;98.00
26575;DHT22;67165;50.256;10.978;2023-12-22T02:33:10;3.90;98.00
26575;DHT22;67165;50.256;10.978;2023-12-22T02:35:38;3.90;98.00
26575;DHT22;67165;50.256;10.978;2023-12-22T02:38:07;3.90;98.00
26575;DHT22;67165;50.256;10.978;2023-12-22T02:40:33;3.90;98.00
26575;DHT22;67165;50.256;10.978;2023-12-22T02:43:01;3.80;98.00
26575;DHT22;67165;50.256;10.978;2023-12-22T02:45:27;3.70;98.00
26575;DHT22;67165;50.256;10.978;2023-12-22T02:47:52;3.70;98.00
26575;DHT22;67165;50.256;10.978;2023-12-22T02:50:18;3.70;98.00
26575;DHT22;67165;50.256;10.978;2023-12-22T02:52:44;3.80;98.00
26575;DHT22;67165;50.256;10.978;2023-12-22T02:55:09;3.80;98.00
26575;DHT22;67165;50.256;10.978;2023-12-22T02:57:35;3.80;98.00
26575;DHT22;67165;50.256;10.978;2023-12-22T03:00:01;3.80;98.00
26575;DHT22;67165;50.256;10.978;2023-12-22T03:02:27;3.90;98.00
26575;DHT22;67165;50.256;10.978;2023-12-22T03:04:52;3.90;98.00
26575;DHT22;67165;50.256;10.978;2023-12-22T03:07:18;3.90;98.00
26575;DHT22;67165;50.256;10.978;2023-12-22T03:09:44;3.90;98.00
26575;DHT22;67165;50.256;10.978;2023-12-22T03:12:10;3.90;98.00
26575;DHT22;67165;50.256;10.978;2023-12-22T03:14:36;3.80;98.00
26575;DHT22;67165;50.256;10.978;2023-12-22T03:17:05;3.80;98.00
26575;DHT22;67165;50.256;10.978;2023-12-22T03:19:32;3.80;98.00
26575;DHT22;67165;50.256;10.978;2023-12-22T03:21:59;3.80;98.00
26575;DHT22;67165;50.256;10.978;2023-12-22T03:24:25;3.70;98.00
26575;DHT22;67165;50.256;10.978;2023-12-22T03:26:52;3.70;98.00
26575;DHT22;67165;50.256;10.978;2023-12-22T03:29:18;3.70;98.00
26575;DHT22;67165;50.256;10.978;2023-12-22T03:31:44;3.70;98.00
26575;DHT22;67165;50.256;10.978;2023-12-22T03:34:10;3.70;98.00
26575;DHT22;67165;50.256;10.978;2023-12-22T03:36:36;3.70;98.00
26575;DHT22;67165;50.256;10.978;2023-12-22T03:39:02;3.70;98.00
26575;DHT22;67165;50.256;10.978;2023-12-22T03:41:28;3.70;98.00
26575;DHT22;67165;50.256;10.978;2023-12-22T03:43:55;3.70;98.00
26575;DHT22;67165;50.256;10.978;2023-12-22T03:46:20;3.80;98.00
26575;DHT22;67165;50.256;10.978;2023-12-22T03:48:46;3.80;98.00
26575;DHT22;67165;50.256;10.978;2023-12-22T03:51:12;3.80;98.00
26575;DHT22;67165;50.256;10.978;2023-12-22T03:53:38;3.80;98.00
26575;DHT22;67165;50.256;10.978;2023-12-22T03:56:04;3.80;98.00
26575;DHT22;67165;50.256;10.978;2023-12-22T03:58:30;3.80;98.00
26575;DHT22;67165;50.256;10.978;2023-12-22T04:00:56;3.90;98.00
26575;DHT22;67165;50.256;10.978;2023-12-22T04:03:22;3.80;98.00
26575;DHT22;67165;50.256;10.978;2023-12-22T04:05:47;3.90;98.00
26575;DHT22;67165;50.256;10.978;2023-12-22T04:08:13;3.90;98.00
26575;DHT22;67165;50.256;10.978;2023-12-22T04:10:38;3.80;98.00
26575;DHT22;67165;50.256;10.978;2023-12-22T04:13:04;3.80;98.00
26575;DHT22;67165;50.256;10.978;2023-12-22T04:15:30;3.80;98.00
26575;DHT22;67165;50.256;10.978;2023-12-22T04:17:55;3.80;98.00
26575;DHT22;67165;50.256;10.978;2023-12-22T04:20:21;3.80;98.00
26575;DHT22;67165;50.256;10.978;2023-12-22T04:22:46;3.80;98.00
26575;DHT22;67165;50.256;10.978;2023-12-22T04:25:12;3.80;98.00
26575;DHT22;67165;50.256;10.978;2023-12-22T04:27:38;3.90;98.00
26575;DHT22;67165;50.256;10.978;2023-12-22T04:30:03;3.90;98.00
26575;DHT22;67165;50.256;10.978;2023-12-22T04:32:29;3.90;98.00
26575;DHT22;67165;50.256;10.978;2023-12-22T04:34:55;4.00;98.00
26575;DHT22;67165;50.256;10.978;2023-12-22T04:37:21;3.90;98.00
26575;DHT22;67165;50.256;10.978;2023-12-22T04:39:46;3.90;98.00
26575;DHT22;67165;50.256;10.978;2023-12-22T04:42:12;3.90;98.00
26575;DHT22;67165;50.256;10.978;2023-12-22T04:44:37;3.90;98.00
26575;DHT22;67165;50.256;10.978;2023-12-22T04:47:03;4.00;98.00
26575;DHT22;67165;50.256;10.978;2023-12-22T04:49:29;4.00;98.00
26575;DHT22;67165;50.256;10.978;2023-12-22T04:51:54;4.00;98.00
26575;DHT22;67165;50.256;10.978;2023-12-22T04:54:20;4.00;98.00
26575;DHT22;67165;50.256;10.978;2023-12-22T04:56:48;4.00;98.00
26575;DHT22;67165;50.256;10.978;2023-12-22T04:59:14;4.00;98.00
26575;DHT22;67165;50.256;10.978;2023-12-22T05:01:39;4.00;98.00
26575;DHT22;67165;50.256;10.978;2023-12-22T05:04:05;4.10;98.00
26575;DHT22;67165;50.256;10.978;2023-12-22T05:06:31;4.10;98.00
26575;DHT22;67165;50.256;10.978;2023-12-22T05:08:57;4.10;98.00
26575;DHT22;67165;50.256;10.978;2023-12-22T05:11:22;4.00;98.00
26575;DHT22;67165;50.256;10.978;2023-12-22T05:13:48;4.00;98.00
26575;DHT22;67165;50.256;10.978;2023-12-22T05:16:14;4.10;98.00
26575;DHT22;67165;50.256;10.978;2023-12-22T05:18:41;4.10;98.00
26575;DHT22;67165;50.256;10.978;2023-12-22T05:21:06;4.10;98.00
26575;DHT22;67165;50.256;10.978;2023-12-22T05:23:32;4.10;98.00
26575;DHT22;67165;50.256;10.978;2023-12-22T05:25:58;4.10;98.00
26575;DHT22;67165;50.256;10.978;2023-12-22T05:28:24;4.10;98.00
26575;DHT22;67165;50.256;10.978;2023-12-22T05:30:49;4.10;98.00
26575;DHT22;67165;50.256;10.978;2023-12-22T05:33:15;4.00;98.00
26575;DHT22;67165;50.256;10.978;2023-12-22T05:35:41;3.90;98.00
26575;DHT22;67165;50.256;10.978;2023-12-22T05:38:06;3.90;98.00
26575;DHT22;67165;50.256;10.978;2023-12-22T05:40:32;3.80;98.00
26575;DHT22;67165;50.256;10.978;2023-12-22T05:42:57;3.80;98.00
26575;DHT22;67165;50.256;10.978;2023-12-22T05:45:23;3.80;98.00
26575;DHT22;67165;50.256;10.978;2023-12-22T05:47:53;3.80;98.00
26575;DHT22;67165;50.256;10.978;2023-12-22T05:50:19;3.80;98.00
26575;DHT22;67165;50.256;10.978;2023-12-22T05:52:44;3.80;98.00
26575;DHT22;67165;50.256;10.978;2023-12-22T05:55:11;3.70;98.00
26575;DHT22;67165;50.256;10.978;2023-12-22T05:57:36;3.70;98.00
26575;DHT22;67165;50.256;10.978;2023-12-22T06:00:06;3.60;98.00
26575;DHT22;67165;50.256;10.978;2023-12-22T06:02:33;3.60;98.00
26575;DHT22;67165;50.256;10.978;2023-12-22T06:04:59;3.50;98.00
26575;DHT22;67165;50.256;10.978;2023-12-22T06:07:26;3.50;98.00
26575;DHT22;67165;50.256;10.978;2023-12-22T06:09:51;3.50;98.00
26575;DHT22;67165;50.256;10.978;2023-12-22T06:12:17;3.50;98.00
26575;DHT22;67165;50.256;10.978;2023-12-22T06:14:43;3.50;98.00
26575;DHT22;67165;50.256;10.978;2023-12-22T06:17:08;3.50;98.00
26575;DHT22;67165;50.256;10.978;2023-12-22T06:19:35;3.40;98.00
26575;DHT22;67165;50.256;10.978;2023-12-22T06:22:01;3.40;98.00
26575;DHT22;67165;50.256;10.978;2023-12-22T06:24:27;3.50;98.00
26575;DHT22;67165;50.256;10.978;2023-12-22T06:26:53;3.50;98.00
26575;DHT22;67165;50.256;10.978;2023-12-22T06:29:19;3.50;98.00
26575;DHT22;67165;50.256;10.978;2023-12-22T06:31:44;3.50;98.00
26575;DHT22;67165;50.256;10.978;2023-12-22T06:34:10;3.60;98.00
26575;DHT22;67165;50.256;10.978;2023-12-22T06:36:36;3.60;98.00
26575;DHT22;67165;50.256;10.978;2023-12-22T06:39:01;3.50;98.00
26575;DHT22;67165;50.256;10.978;2023-12-22T06:41:28;3.50;98.00
26575;DHT22;67165;50.256;10.978;2023-12-22T06:43:55;3.50;98.00
26575;DHT22;67165;50.256;10.978;2023-12-22T06:46:23;3.40;98.00
26575;DHT22;67165;50.256;10.978;2023-12-22T06:48:51;3.40;98.00
26575;DHT22;67165;50.256;10.978;2023-12-22T06:51:24;3.50;98.00
26575;DHT22;67165;50.256;10.978;2023-12-22T06:53:50;3.50;98.00
26575;DHT22;67165;50.256;10.978;2023-12-22T06:56:24;3.60;98.00
26575;DHT22;67165;50.256;10.978;2023-12-22T06:58:50;3.70;98.00
26575;DHT22;67165;50.256;10.978;2023-12-22T07:03:46;3.60;98.00
26575;DHT22;67165;50.256;10.978;2023-12-22T07:06:16;3.70;98.00
26575;DHT22;67165;50.256;10.978;2023-12-22T07:08:42;3.70;98.00
26575;DHT22;67165;50.256;10.978;2023-12-22T07:11:11;3.70;98.00
26575;DHT22;67165;50.256;10.978;2023-12-22T07:13:37;3.80;98.00
26575;DHT22;67165;50.256;10.978;2023-12-22T07:16:04;3.80;98.00
26575;DHT22;67165;50.256;10.978;2023-12-22T07:18:30;3.80;98.00
26575;DHT22;67165;50.256;10.978;2023-12-22T07:20:59;3.70;98.00
26575;DHT22;67165;50.256;10.978;2023-12-22T07:23:25;3.60;98.00
26575;DHT22;67165;50.256;10.978;2023-12-22T07:25:50;3.60;98.00
26575;DHT22;67165;50.256;10.978;2023-12-22T07:28:16;3.60;98.00
26575;DHT22;67165;50.256;10.978;2023-12-22T07:30:42;3.60;98.00
26575;DHT22;67165;50.256;10.978;2023-12-22T07:33:08;3.50;98.00
26575;DHT22;67165;50.256;10.978;2023-12-22T07:35:33;3.60;98.00
26575;DHT22;67165;50.256;10.978;2023-12-22T07:38:00;3.60;98.00
26575;DHT22;67165;50.256;10.978;2023-12-22T07:40:25;3.70;98.00
26575;DHT22;67165;50.256;10.978;2023-12-22T07:42:51;3.70;98.00
26575;DHT22;67165;50.256;10.978;2023-12-22T07:45:17;3.80;98.00
26575;DHT22;67165;50.256;10.978;2023-12-22T07:47:42;3.80;98.00
26575;DHT22;67165;50.256;10.978;2023-12-22T07:50:08;3.90;98.00
26575;DHT22;67165;50.256;10.978;2023-12-22T07:52:37;3.90;98.00
26575;DHT22;67165;50.256;10.978;2023-12-22T07:55:08;3.90;98.00
26575;DHT22;67165;50.256;10.978;2023-12-22T07:57:38;4.00;98.00
26575;DHT22;67165;50.256;10.978;2023-12-22T08:00:04;4.10;98.00
26575;DHT22;67165;50.256;10.978;2023-12-22T08:02:31;4.10;98.00
26575;DHT22;67165;50.256;10.978;2023-12-22T08:04:57;4.30;98.00
26575;DHT22;67165;50.256;10.978;2023-12-22T08:07:23;4.20;98.00
26575;DHT22;67165;50.256;10.978;2023-12-22T08:09:48;4.20;98.00
26575;DHT22;67165;50.256;10.978;2023-12-22T08:12:14;4.20;98.00
26575;DHT22;67165;50.256;10.978;2023-12-22T08:14:39;4.20;98.00
26575;DHT22;67165;50.256;10.978;2023-12-22T08:17:06;4.20;98.00
26575;DHT22;67165;50.256;10.978;2023-12-22T08:19:32;4.20;98.00
26575;DHT22;67165;50.256;10.978;2023-12-22T08:21:57;4.10;98.00
26575;DHT22;67165;50.256;10.978;2023-12-22T08:24:23;4.20;98.00
26575;DHT22;67165;50.256;10.978;2023-12-22T08:26:52;4.20;98.00
26575;DHT22;67165;50.256;10.978;2023-12-22T08:29:17;4.30;98.00
26575;DHT22;67165;50.256;10.978;2023-12-22T08:31:44;4.30;98.00
26575;DHT22;67165;50.256;10.978;2023-12-22T08:34:10;4.30;98.00
26575;DHT22;67165;50.256;10.978;2023-12-22T08:36:36;4.30;98.00
26575;DHT22;67165;50.256;10.978;2023-12-22T08:39:01;4.40;98.00
26575;DHT22;67165;50.256;10.978;2023-12-22T08:41:27;4.40;98.00
26575;DHT22;67165;50.256;10.978;2023-12-22T08:43:53;4.40;98.00
26575;DHT22;67165;50.256;10.978;2023-12-22T08:46:19;4.40;98.00
26575;DHT22;67165;50.256;10.978;2023-12-22T08:48:44;4.50;98.00
26575;DHT22;67165;50.256;10.978;2023-12-22T08:51:10;4.60;98.00
26575;DHT22;67165;50.256;10.978;2023-12-22T08:53:36;4.60;98.00
26575;DHT22;67165;50.256;10.978;2023-12-22T08:56:05;4.60;98.00
26575;DHT22;67165;50.256;10.978;2023-12-22T08:58:32;4.70;98.00
26575;DHT22;67165;50.256;10.978;2023-12-22T09:00:58;4.80;98.00
26575;DHT22;67165;50.256;10.978;2023-12-22T09:03:23;4.80;98.00
26575;DHT22;67165;50.256;10.978;2023-12-22T09:05:49;4.90;98.00
26575;DHT22;67165;50.256;10.978;2023-12-22T09:08:15;4.90;98.00
26575;DHT22;67165;50.256;10.978;2023-12-22T09:10:40;5.00;98.00
26575;DHT22;67165;50.256;10.978;2023-12-22T09:13:06;5.00;98.00
26575;DHT22;67165;50.256;10.978;2023-12-22T09:15:32;5.00;98.00
26575;DHT22;67165;50.256;10.978;2023-12-22T09:17:57;5.00;98.00
26575;DHT22;67165;50.256;10.978;2023-12-22T09:20:23;5.10;98.00
26575;DHT22;67165;50.256;10.978;2023-12-22T09:22:49;5.10;98.00
26575;DHT22;67165;50.256;10.978;2023-12-22T09:25:14;5.20;98.00
26575;DHT22;67165;50.256;10.978;2023-12-22T09:27:40;5.20;98.00
26575;DHT22;67165;50.256;10.978;2023-12-22T09:30:06;5.10;98.00
26575;DHT22;67165;50.256;10.978;2023-12-22T09:32:32;5.20;98.00
26575;DHT22;67165;50.256;10.978;2023-12-22T09:34:58;5.20;98.00
26575;DHT22;67165;50.256;10.978;2023-12-22T09:37:25;5.30;98.00
26575;DHT22;67165;50.256;10.978;2023-12-22T09:39:51;5.30;98.00
26575;DHT22;67165;50.256;10.978;2023-12-22T09:42:17;5.30;98.00
26575;DHT22;67165;50.256;10.978;2023-12-22T09:44:43;5.30;98.00
26575;DHT22;67165;50.256;10.978;2023-12-22T09:47:09;5.30;98.00
26575;DHT22;67165;50.256;10.978;2023-12-22T09:49:37;5.30;98.00
26575;DHT22;67165;50.256;10.978;2023-12-22T09:52:04;5.30;98.00
26575;DHT22;67165;50.256;10.978;2023-12-22T09:54:32;5.30;98.00
26575;DHT22;67165;50.256;10.978;2023-12-22T09:57:00;5.30;98.00
26575;DHT22;67165;50.256;10.978;2023-12-22T09:59:27;5.30;98.00
26575;DHT22;67165;50.256;10.978;2023-12-22T10:01:55;5.30;98.00
26575;DHT22;67165;50.256;10.978;2023-12-22T10:04:21;5.40;98.00
26575;DHT22;67165;50.256;10.978;2023-12-22T10:06:48;5.30;98.00
26575;DHT22;67165;50.256;10.978;2023-12-22T10:09:15;5.40;98.00
26575;DHT22;67165;50.256;10.978;2023-12-22T10:11:43;5.40;98.00
26575;DHT22;67165;50.256;10.978;2023-12-22T10:14:10;5.40;98.00
26575;DHT22;67165;50.256;10.978;2023-12-22T10:16:38;5.40;98.00
26575;DHT22;67165;50.256;10.978;2023-12-22T10:19:05;5.40;98.00
26575;DHT22;67165;50.256;10.978;2023-12-22T10:21:32;5.40;98.00
26575;DHT22;67165;50.256;10.978;2023-12-22T10:23:57;5.40;98.00
26575;DHT22;67165;50.256;10.978;2023-12-22T10:26:23;5.40;98.00
26575;DHT22;67165;50.256;10.978;2023-12-22T10:28:49;5.40;98.00
26575;DHT22;67165;50.256;10.978;2023-12-22T10:31:17;5.40;98.00
26575;DHT22;67165;50.256;10.978;2023-12-22T10:33:43;5.40;98.00
26575;DHT22;67165;50.256;10.978;2023-12-22T10:36:09;5.30;98.00
26575;DHT22;67165;50.256;10.978;2023-12-22T10:38:35;5.30;98.00
26575;DHT22;67165;50.256;10.978;2023-12-22T10:41:05;5.20;98.00
26575;DHT22;67165;50.256;10.978;2023-12-22T10:43:39;5.20;98.00
26575;DHT22;67165;50.256;10.978;2023-12-22T10:46:06;5.20;98.00
26575;DHT22;67165;50.256;10.978;2023-12-22T10:48:33;5.20;98.00
26575;DHT22;67165;50.256;10.978;2023-12-22T10:50:59;5.20;98.00
26575;DHT22;67165;50.256;10.978;2023-12-22T10:53:25;5.20;98.00
26575;DHT22;67165;50.256;10.978;2023-12-22T10:55:51;5.20;98.00
26575;DHT22;67165;50.256;10.978;2023-12-22T10:58:18;5.20;98.00
26575;DHT22;67165;50.256;10.978;2023-12-22T11:00:48;5.10;98.00
26575;DHT22;67165;50.256;10.978;2023-12-22T11:03:17;5.10;98.00
26575;DHT22;67165;50.256;10.978;2023-12-22T11:05:46;5.00;98.00
26575;DHT22;67165;50.256;10.978;2023-12-22T11:08:14;4.90;98.00
26575;DHT22;67165;50.256;10.978;2023-12-22T11:10:42;4.80;98.00
26575;DHT22;67165;50.256;10.978;2023-12-22T11:13:12;4.80;98.00
26575;DHT22;67165;50.256;10.978;2023-12-22T11:15:39;4.80;98.00
26575;DHT22;67165;50.256;10.978;2023-12-22T11:18:06;4.80;98.00
26575;DHT22;67165;50.256;10.978;2023-12-22T11:20:33;4.70;98.00
26575;DHT22;67165;50.256;10.978;2023-12-22T11:23:00;4.70;98.00
26575;DHT22;67165;50.256;10.978;2023-12-22T11:25:28;4.70;98.00
26575;DHT22;67165;50.256;10.978;2023-12-22T11:27:55;4.70;98.00
26575;DHT22;67165;50.256;10.978;2023-12-22T11:30:22;4.70;98.00
26575;DHT22;67165;50.256;10.978;2023-12-22T11:32:53;4.80;98.00
26575;DHT22;67165;50.256;10.978;2023-12-22T11:35:23;4.80;98.00
26575;DHT22;67165;50.256;10.978;2023-12-22T11:37:49;4.90;98.00
26575;DHT22;67165;50.256;10.978;2023-12-22T11:40:15;4.80;98.00
26575;DHT22;67165;50.256;10.978;2023-12-22T11:42:43;4.80;98.00
26575;DHT22;67165;50.256;10.978;2023-12-22T11:45:11;4.80;98.00
26575;DHT22;67165;50.256;10.978;2023-12-22T11:47:42;4.90;98.00
26575;DHT22;67165;50.256;10.978;2023-12-22T11:50:11;4.90;98.00
26575;DHT22;67165;50.256;10.978;2023-12-22T11:52:37;4.90;98.00
26575;DHT22;67165;50.256;10.978;2023-12-22T11:55:04;4.90;98.00
26575;DHT22;67165;50.256;10.978;2023-12-22T11:57:34;4.90;98.00
26575;DHT22;67165;50.256;10.978;2023-12-22T12:03:05;5.00;98.00
26575;DHT22;67165;50.256;10.978;2023-12-22T12:05:32;5.00;98.00
26575;DHT22;67165;50.256;10.978;2023-12-22T12:08:06;4.90;98.00
26575;DHT22;67165;50.256;10.978;2023-12-22T12:13:05;5.00;98.00
26575;DHT22;67165;50.256;10.978;2023-12-22T12:15:33;5.00;98.00
26575;DHT22;67165;50.256;10.978;2023-12-22T12:18:00;5.00;98.00
26575;DHT22;67165;50.256;10.978;2023-12-22T12:20:26;4.90;98.00
26575;DHT22;67165;50.256;10.978;2023-12-22T12:22:53;5.00;98.00
26575;DHT22;67165;50.256;10.978;2023-12-22T12:25:22;5.10;98.00
26575;DHT22;67165;50.256;10.978;2023-12-22T12:28:00;5.00;98.00
26575;DHT22;67165;50.256;10.978;2023-12-22T12:30:26;5.00;98.00
26575;DHT22;67165;50.256;10.978;2023-12-22T12:32:52;5.00;98.00
26575;DHT22;67165;50.256;10.978;2023-12-22T12:35:18;4.90;98.00
26575;DHT22;67165;50.256;10.978;2023-12-22T12:37:45;4.90;98.00
26575;DHT22;67165;50.256;10.978;2023-12-22T12:40:16;4.90;98.00
26575;DHT22;67165;50.256;10.978;2023-12-22T12:42:45;4.90;98.00
26575;DHT22;67165;50.256;10.978;2023-12-22T12:45:11;4.80;98.00
26575;DHT22;67165;50.256;10.978;2023-12-22T12:47:36;4.70;98.00
26575;DHT22;67165;50.256;10.978;2023-12-22T12:50:02;4.70;98.00
26575;DHT22;67165;50.256;10.978;2023-12-22T12:52:29;4.70;98.00
26575;DHT22;67165;50.256;10.978;2023-12-22T12:54:54;4.70;98.00
26575;DHT22;67165;50.256;10.978;2023-12-22T12:57:21;4.60;98.00
26575;DHT22;67165;50.256;10.978;2023-12-22T12:59:48;4.50;98.00
26575;DHT22;67165;50.256;10.978;2023-12-22T13:02:18;4.50;98.00
26575;DHT22;67165;50.256;10.978;2023-12-22T13:04:44;4.50;98.00
26575;DHT22;67165;50.256;10.978;2023-12-22T13:07:10;4.50;98.00
26575;DHT22;67165;50.256;10.978;2023-12-22T13:09:38;4.40;98.00
26575;DHT22;67165;50.256;10.978;2023-12-22T13:12:04;4.30;98.00
26575;DHT22;67165;50.256;10.978;2023-12-22T13:14:30;4.30;98.00
26575;DHT22;67165;50.256;10.978;2023-12-22T13:16:57;4.20;98.00
26575;DHT22;67165;50.256;10.978;2023-12-22T13:19:23;4.20;98.00
26575;DHT22;67165;50.256;10.978;2023-12-22T13:21:56;4.20;98.00
26575;DHT22;67165;50.256;10.978;2023-12-22T13:24:22;4.20;98.00
26575;DHT22;67165;50.256;10.978;2023-12-22T13:27:02;4.20;98.00
26575;DHT22;67165;50.256;10.978;2023-12-22T13:29:29;4.20;98.00
26575;DHT22;67165;50.256;10.978;2023-12-22T13:31:55;4.30;98.00
26575;DHT22;67165;50.256;10.978;2023-12-22T13:34:22;4.30;98.00
26575;DHT22;67165;50.256;10.978;2023-12-22T13:36:48;4.30;98.00
26575;DHT22;67165;50.256;10.978;2023-12-22T13:39:14;4.40;98.00
26575;DHT22;67165;50.256;10.978;2023-12-22T13:41:41;4.40;98.00
26575;DHT22;67165;50.256;10.978;2023-12-22T13:44:11;4.40;98.00
26575;DHT22;67165;50.256;10.978;2023-12-22T13:46:37;4.40;98.00
26575;DHT22;67165;50.256;10.978;2023-12-22T13:49:09;4.50;98.00
26575;DHT22;67165;50.256;10.978;2023-12-22T13:51:44;4.50;98.00
26575;DHT22;67165;50.256;10.978;2023-12-22T13:54:10;4.40;98.00
26575;DHT22;67165;50.256;10.978;2023-12-22T13:56:37;4.40;98.00
26575;DHT22;67165;50.256;10.978;2023-12-22T13:59:06;4.50;98.00
26575;DHT22;67165;50.256;10.978;2023-12-22T14:01:32;4.50;98.00
26575;DHT22;67165;50.256;10.978;2023-12-22T14:03:58;4.50;98.00
26575;DHT22;67165;50.256;10.978;2023-12-22T14:06:25;4.60;98.00
26575;DHT22;67165;50.256;10.978;2023-12-22T14:08:52;4.50;98.00
26575;DHT22;67165;50.256;10.978;2023-12-22T14:11:18;4.50;98.00
26575;DHT22;67165;50.256;10.978;2023-12-22T14:13:44;4.50;98.00
26575;DHT22;67165;50.256;10.978;2023-12-22T14:16:09;4.50;98.00
26575;DHT22;67165;50.256;10.978;2023-12-22T14:18:35;4.40;98.00
26575;DHT22;67165;50.256;10.978;2023-12-22T14:21:01;4.50;98.00
26575;DHT22;67165;50.256;10.978;2023-12-22T14:23:26;4.40;98.00
26575;DHT22;67165;50.256;10.978;2023-12-22T14:25:52;4.50;98.00
26575;DHT22;67165;50.256;10.978;2023-12-22T14:28:18;4.50;98.00
26575;DHT22;67165;50.256;10.978;2023-12-22T14:30:44;4.50;98.00
26575;DHT22;67165;50.256;10.978;2023-12-22T14:33:10;4.50;98.00
26575;DHT22;67165;50.256;10.978;2023-12-22T14:35:36;4.50;98.00
26575;DHT22;67165;50.256;10.978;2023-12-22T14:38:02;4.50;98.00
26575;DHT22;67165;50.256;10.978;2023-12-22T14:40:28;4.50;98.00
26575;DHT22;67165;50.256;10.978;2023-12-22T14:42:53;4.50;98.00
26575;DHT22;67165;50.256;10.978;2023-12-22T14:45:19;4.50;98.00
26575;DHT22;67165;50.256;10.978;2023-12-22T14:47:44;4.50;98.00
26575;DHT22;67165;50.256;10.978;2023-12-22T14:50:10;4.50;98.00
26575;DHT22;67165;50.256;10.978;2023-12-22T14:52:36;4.50;98.00
26575;DHT22;67165;50.256;10.978;2023-12-22T14:55:02;4.50;98.00
26575;DHT22;67165;50.256;10.978;2023-12-22T14:57:29;4.40;98.00
26575;DHT22;67165;50.256;10.978;2023-12-22T14:59:55;4.40;98.00
26575;DHT22;67165;50.256;10.978;2023-12-22T15:02:21;4.50;98.00
26575;DHT22;67165;50.256;10.978;2023-12-22T15:04:46;4.50;98.00
26575;DHT22;67165;50.256;10.978;2023-12-22T15:07:18;4.50;98.00
26575;DHT22;67165;50.256;10.978;2023-12-22T15:09:44;4.40;98.00
26575;DHT22;67165;50.256;10.978;2023-12-22T15:12:11;4.40;98.00
26575;DHT22;67165;50.256;10.978;2023-12-22T15:14:37;4.50;98.00
26575;DHT22;67165;50.256;10.978;2023-12-22T15:17:03;4.60;98.00
26575;DHT22;67165;50.256;10.978;2023-12-22T15:19:28;4.60;98.00
26575;DHT22;67165;50.256;10.978;2023-12-22T15:21:54;4.50;98.00
26575;DHT22;67165;50.256;10.978;2023-12-22T15:24:20;4.50;98.00
26575;DHT22;67165;50.256;10.978;2023-12-22T15:26:46;4.60;98.00
26575;DHT22;67165;50.256;10.978;2023-12-22T15:29:12;4.60;98.00
26575;DHT22;67165;50.256;10.978;2023-12-22T15:31:37;4.60;98.00
26575;DHT22;67165;50.256;10.978;2023-12-22T15:34:03;4.60;98.00